Terminal Aerodrome Forecast
Issued by NWS

Home | Current Version | Previous Version | Text Only | Print | Product List | Glossary On
Versions: 1 2 3 4 5 6 7 8 9 10 11 12 13
000
FTUS44 KLUB 070124 AAA
TAFCDS
TAF AMD
KCDS 070124Z 0701/0724 16008KT P6SM SCT060 OVC150
      TEMPO 0702/0704 30016G24KT 5SM -TSRA BKN060CB BKN120
     FM070400 31014KT 5SM -TSRA SCT030 BKN050CB
      TEMPO 0704/0708 2SM TSRA SCT015 OVC030CB
     FM070800 VRB06KT 5SM TSRA OVC025CB
     FM071200 02010KT P6SM SCT020 BKN040=

USA.gov is the U.S. government's official web portal to all federal, state and local government web resources and services.